sensor_id;sensor_type;location;lat;lon;timestamp;temperature;humidity
18888;DHT22;9576;47.792;9.628;2022-11-12T00:01:27;7.60;99.90
18888;DHT22;9576;47.792;9.628;2022-11-12T00:04:29;7.60;99.90
18888;DHT22;9576;47.792;9.628;2022-11-12T00:07:31;7.60;99.90
18888;DHT22;9576;47.792;9.628;2022-11-12T00:10:33;7.50;99.90
18888;DHT22;9576;47.792;9.628;2022-11-12T00:13:36;7.40;99.90
18888;DHT22;9576;47.792;9.628;2022-11-12T00:16:38;7.40;99.90
18888;DHT22;9576;47.792;9.628;2022-11-12T00:19:40;7.40;99.90
18888;DHT22;9576;47.792;9.628;2022-11-12T00:22:42;7.40;99.90
18888;DHT22;9576;47.792;9.628;2022-11-12T00:25:44;7.40;99.90
18888;DHT22;9576;47.792;9.628;2022-11-12T00:28:47;7.40;99.90
18888;DHT22;9576;47.792;9.628;2022-11-12T00:31:49;7.40;99.90
18888;DHT22;9576;47.792;9.628;2022-11-12T00:34:51;7.50;99.90
18888;DHT22;9576;47.792;9.628;2022-11-12T00:37:53;7.50;99.90
18888;DHT22;9576;47.792;9.628;2022-11-12T00:40:58;7.50;99.90
18888;DHT22;9576;47.792;9.628;2022-11-12T00:44:01;7.50;99.90
18888;DHT22;9576;47.792;9.628;2022-11-12T00:47:03;7.50;99.90
18888;DHT22;9576;47.792;9.628;2022-11-12T00:50:06;7.60;99.90
18888;DHT22;9576;47.792;9.628;2022-11-12T00:53:08;7.60;99.90
18888;DHT22;9576;47.792;9.628;2022-11-12T00:56:10;7.60;99.90
18888;DHT22;9576;47.792;9.628;2022-11-12T00:59:13;7.70;99.90
18888;DHT22;9576;47.792;9.628;2022-11-12T01:02:15;7.60;99.90
18888;DHT22;9576;47.792;9.628;2022-11-12T01:05:18;7.60;99.90
18888;DHT22;9576;47.792;9.628;2022-11-12T01:08:20;7.60;99.90
18888;DHT22;9576;47.792;9.628;2022-11-12T01:11:24;7.60;99.90
18888;DHT22;9576;47.792;9.628;2022-11-12T01:14:27;7.60;99.90
18888;DHT22;9576;47.792;9.628;2022-11-12T01:17:29;7.50;99.90
18888;DHT22;9576;47.792;9.628;2022-11-12T01:20:31;7.40;99.90
18888;DHT22;9576;47.792;9.628;2022-11-12T01:23:35;7.40;99.90
18888;DHT22;9576;47.792;9.628;2022-11-12T01:26:38;7.30;99.90
18888;DHT22;9576;47.792;9.628;2022-11-12T01:29:41;7.30;99.90
18888;DHT22;9576;47.792;9.628;2022-11-12T01:32:43;7.40;99.90
18888;DHT22;9576;47.792;9.628;2022-11-12T01:35:45;7.40;99.90
18888;DHT22;9576;47.792;9.628;2022-11-12T01:38:47;7.40;99.90
18888;DHT22;9576;47.792;9.628;2022-11-12T01:41:49;7.30;99.90
18888;DHT22;9576;47.792;9.628;2022-11-12T01:44:53;7.20;99.90
18888;DHT22;9576;47.792;9.628;2022-11-12T01:47:55;7.30;99.90
18888;DHT22;9576;47.792;9.628;2022-11-12T01:50:57;7.30;99.90
18888;DHT22;9576;47.792;9.628;2022-11-12T01:54:01;7.30;99.90
18888;DHT22;9576;47.792;9.628;2022-11-12T01:57:06;7.20;99.90
18888;DHT22;9576;47.792;9.628;2022-11-12T02:00:12;7.20;99.90
18888;DHT22;9576;47.792;9.628;2022-11-12T02:03:21;7.30;99.90
18888;DHT22;9576;47.792;9.628;2022-11-12T02:06:24;7.20;99.90
18888;DHT22;9576;47.792;9.628;2022-11-12T02:09:26;7.20;99.90
18888;DHT22;9576;47.792;9.628;2022-11-12T02:12:28;7.10;99.90
18888;DHT22;9576;47.792;9.628;2022-11-12T02:15:49;7.20;99.90
18888;DHT22;9576;47.792;9.628;2022-11-12T02:18:51;7.20;99.90
18888;DHT22;9576;47.792;9.628;2022-11-12T02:21:54;7.20;99.90
18888;DHT22;9576;47.792;9.628;2022-11-12T02:24:56;7.30;99.90
18888;DHT22;9576;47.792;9.628;2022-11-12T02:27:58;7.30;99.90
18888;DHT22;9576;47.792;9.628;2022-11-12T02:31:01;7.40;99.90
18888;DHT22;9576;47.792;9.628;2022-11-12T02:34:03;7.30;99.90
18888;DHT22;9576;47.792;9.628;2022-11-12T02:37:06;7.30;99.90
18888;DHT22;9576;47.792;9.628;2022-11-12T02:40:09;7.20;99.90
18888;DHT22;9576;47.792;9.628;2022-11-12T02:43:11;7.10;99.90
18888;DHT22;9576;47.792;9.628;2022-11-12T02:46:13;7.20;99.90
18888;DHT22;9576;47.792;9.628;2022-11-12T02:49:15;7.30;99.90
18888;DHT22;9576;47.792;9.628;2022-11-12T02:52:18;7.20;99.90
18888;DHT22;9576;47.792;9.628;2022-11-12T02:55:20;7.20;99.90
18888;DHT22;9576;47.792;9.628;2022-11-12T02:58:22;7.30;99.90
18888;DHT22;9576;47.792;9.628;2022-11-12T03:01:24;7.30;99.90
18888;DHT22;9576;47.792;9.628;2022-11-12T03:04:26;7.30;99.90
18888;DHT22;9576;47.792;9.628;2022-11-12T03:07:29;7.30;99.90
18888;DHT22;9576;47.792;9.628;2022-11-12T03:10:32;7.30;99.90
18888;DHT22;9576;47.792;9.628;2022-11-12T03:13:35;7.40;99.90
18888;DHT22;9576;47.792;9.628;2022-11-12T03:16:37;7.30;99.90
18888;DHT22;9576;47.792;9.628;2022-11-12T03:19:39;7.20;99.90
18888;DHT22;9576;47.792;9.628;2022-11-12T03:22:42;7.30;99.90
18888;DHT22;9576;47.792;9.628;2022-11-12T03:25:54;7.30;99.90
18888;DHT22;9576;47.792;9.628;2022-11-12T03:28:56;7.30;99.90
18888;DHT22;9576;47.792;9.628;2022-11-12T03:31:58;7.30;99.90
18888;DHT22;9576;47.792;9.628;2022-11-12T03:35:00;7.10;99.90
18888;DHT22;9576;47.792;9.628;2022-11-12T03:38:04;7.20;99.90
18888;DHT22;9576;47.792;9.628;2022-11-12T03:41:06;7.30;99.90
18888;DHT22;9576;47.792;9.628;2022-11-12T03:44:08;7.30;99.90
18888;DHT22;9576;47.792;9.628;2022-11-12T03:47:10;7.40;99.90
18888;DHT22;9576;47.792;9.628;2022-11-12T03:50:13;7.40;99.90
18888;DHT22;9576;47.792;9.628;2022-11-12T03:53:16;7.50;99.90
18888;DHT22;9576;47.792;9.628;2022-11-12T03:56:18;7.40;99.90
18888;DHT22;9576;47.792;9.628;2022-11-12T03:59:20;7.40;99.90
18888;DHT22;9576;47.792;9.628;2022-11-12T04:02:22;7.50;99.90
18888;DHT22;9576;47.792;9.628;2022-11-12T04:05:26;7.60;99.90
18888;DHT22;9576;47.792;9.628;2022-11-12T04:08:47;7.60;99.90
18888;DHT22;9576;47.792;9.628;2022-11-12T04:11:49;7.60;99.90
18888;DHT22;9576;47.792;9.628;2022-11-12T04:14:50;7.70;99.90
18888;DHT22;9576;47.792;9.628;2022-11-12T04:17:51;7.70;99.90
18888;DHT22;9576;47.792;9.628;2022-11-12T04:21:13;7.70;99.90
18888;DHT22;9576;47.792;9.628;2022-11-12T04:24:35;7.70;99.90
18888;DHT22;9576;47.792;9.628;2022-11-12T04:27:55;7.60;99.90
18888;DHT22;9576;47.792;9.628;2022-11-12T04:30:57;7.60;99.90
18888;DHT22;9576;47.792;9.628;2022-11-12T04:33:58;7.60;99.90
18888;DHT22;9576;47.792;9.628;2022-11-12T04:37:20;7.50;99.90
18888;DHT22;9576;47.792;9.628;2022-11-12T04:40:25;7.50;99.90
18888;DHT22;9576;47.792;9.628;2022-11-12T04:43:44;7.50;99.90
18888;DHT22;9576;47.792;9.628;2022-11-12T04:47:04;7.60;99.90
18888;DHT22;9576;47.792;9.628;2022-11-12T04:50:11;7.60;99.90
18888;DHT22;9576;47.792;9.628;2022-11-12T04:53:13;7.50;99.90
18888;DHT22;9576;47.792;9.628;2022-11-12T04:56:17;7.40;99.90
18888;DHT22;9576;47.792;9.628;2022-11-12T04:59:19;7.40;99.90
18888;DHT22;9576;47.792;9.628;2022-11-12T05:02:21;7.30;99.90
18888;DHT22;9576;47.792;9.628;2022-11-12T05:05:23;7.40;99.90
18888;DHT22;9576;47.792;9.628;2022-11-12T05:08:25;7.40;99.90
18888;DHT22;9576;47.792;9.628;2022-11-12T05:11:28;7.40;99.90
18888;DHT22;9576;47.792;9.628;2022-11-12T05:14:30;7.50;99.90
18888;DHT22;9576;47.792;9.628;2022-11-12T05:17:32;7.50;99.90
18888;DHT22;9576;47.792;9.628;2022-11-12T05:20:34;7.50;99.90
18888;DHT22;9576;47.792;9.628;2022-11-12T05:23:36;7.50;99.90
18888;DHT22;9576;47.792;9.628;2022-11-12T05:26:39;7.50;99.90
18888;DHT22;9576;47.792;9.628;2022-11-12T05:29:41;7.50;99.90
18888;DHT22;9576;47.792;9.628;2022-11-12T05:32:43;7.50;99.90
18888;DHT22;9576;47.792;9.628;2022-11-12T05:35:45;7.60;99.90
18888;DHT22;9576;47.792;9.628;2022-11-12T05:38:47;7.60;99.90
18888;DHT22;9576;47.792;9.628;2022-11-12T05:41:50;7.60;99.90
18888;DHT22;9576;47.792;9.628;2022-11-12T05:44:52;7.50;99.90
18888;DHT22;9576;47.792;9.628;2022-11-12T05:47:54;7.60;99.90
18888;DHT22;9576;47.792;9.628;2022-11-12T05:50:56;7.60;99.90
18888;DHT22;9576;47.792;9.628;2022-11-12T05:53:59;7.60;99.90
18888;DHT22;9576;47.792;9.628;2022-11-12T05:57:02;7.50;99.90
18888;DHT22;9576;47.792;9.628;2022-11-12T06:00:06;7.60;99.90
18888;DHT22;9576;47.792;9.628;2022-11-12T06:03:09;7.60;99.90
18888;DHT22;9576;47.792;9.628;2022-11-12T06:06:11;7.70;99.90
18888;DHT22;9576;47.792;9.628;2022-11-12T06:09:13;7.70;99.90
18888;DHT22;9576;47.792;9.628;2022-11-12T06:12:16;7.70;99.90
18888;DHT22;9576;47.792;9.628;2022-11-12T06:15:18;7.60;99.90
18888;DHT22;9576;47.792;9.628;2022-11-12T06:18:20;7.70;99.90
18888;DHT22;9576;47.792;9.628;2022-11-12T06:21:22;7.70;99.90
18888;DHT22;9576;47.792;9.628;2022-11-12T06:24:26;7.70;99.90
18888;DHT22;9576;47.792;9.628;2022-11-12T06:27:31;7.80;99.90
18888;DHT22;9576;47.792;9.628;2022-11-12T06:30:33;7.80;99.90
18888;DHT22;9576;47.792;9.628;2022-11-12T06:33:35;7.80;99.90
18888;DHT22;9576;47.792;9.628;2022-11-12T06:36:37;7.80;99.90
18888;DHT22;9576;47.792;9.628;2022-11-12T06:39:38;7.90;99.90
18888;DHT22;9576;47.792;9.628;2022-11-12T06:42:42;7.80;99.90
18888;DHT22;9576;47.792;9.628;2022-11-12T06:45:44;7.80;99.90
18888;DHT22;9576;47.792;9.628;2022-11-12T06:48:45;7.80;99.90
18888;DHT22;9576;47.792;9.628;2022-11-12T06:51:49;7.90;99.90
18888;DHT22;9576;47.792;9.628;2022-11-12T06:54:51;7.90;99.90
18888;DHT22;9576;47.792;9.628;2022-11-12T06:57:55;8.00;99.90
18888;DHT22;9576;47.792;9.628;2022-11-12T07:00:56;8.00;99.90
18888;DHT22;9576;47.792;9.628;2022-11-12T07:03:58;8.10;99.90
18888;DHT22;9576;47.792;9.628;2022-11-12T07:07:00;8.10;99.90
18888;DHT22;9576;47.792;9.628;2022-11-12T07:10:03;8.20;99.90
18888;DHT22;9576;47.792;9.628;2022-11-12T07:13:06;8.20;99.90
18888;DHT22;9576;47.792;9.628;2022-11-12T07:16:09;8.20;99.90
18888;DHT22;9576;47.792;9.628;2022-11-12T07:19:11;8.20;99.90
18888;DHT22;9576;47.792;9.628;2022-11-12T07:22:13;8.10;99.90
18888;DHT22;9576;47.792;9.628;2022-11-12T07:25:15;7.90;99.90
18888;DHT22;9576;47.792;9.628;2022-11-12T07:28:18;8.00;99.90
18888;DHT22;9576;47.792;9.628;2022-11-12T07:31:21;8.00;99.90
18888;DHT22;9576;47.792;9.628;2022-11-12T07:34:23;7.90;99.90
18888;DHT22;9576;47.792;9.628;2022-11-12T07:37:25;7.90;99.90
18888;DHT22;9576;47.792;9.628;2022-11-12T07:40:26;7.90;99.90
18888;DHT22;9576;47.792;9.628;2022-11-12T07:43:30;8.00;99.90
18888;DHT22;9576;47.792;9.628;2022-11-12T07:46:33;8.10;99.90
18888;DHT22;9576;47.792;9.628;2022-11-12T07:49:34;8.10;99.90
18888;DHT22;9576;47.792;9.628;2022-11-12T07:52:36;8.10;99.90
18888;DHT22;9576;47.792;9.628;2022-11-12T07:55:38;8.00;99.90
18888;DHT22;9576;47.792;9.628;2022-11-12T07:58:42;8.00;99.90
18888;DHT22;9576;47.792;9.628;2022-11-12T08:01:44;8.00;99.90
18888;DHT22;9576;47.792;9.628;2022-11-12T08:04:46;7.90;99.90
18888;DHT22;9576;47.792;9.628;2022-11-12T08:07:48;7.90;99.90
18888;DHT22;9576;47.792;9.628;2022-11-12T08:10:53;7.90;99.90
18888;DHT22;9576;47.792;9.628;2022-11-12T08:13:57;7.90;99.90
18888;DHT22;9576;47.792;9.628;2022-11-12T08:16:59;8.00;99.90
18888;DHT22;9576;47.792;9.628;2022-11-12T08:20:01;7.90;99.90
18888;DHT22;9576;47.792;9.628;2022-11-12T08:23:03;7.90;99.90
18888;DHT22;9576;47.792;9.628;2022-11-12T08:26:07;7.90;99.90
18888;DHT22;9576;47.792;9.628;2022-11-12T08:29:10;7.80;99.90
18888;DHT22;9576;47.792;9.628;2022-11-12T08:32:13;7.90;99.90
18888;DHT22;9576;47.792;9.628;2022-11-12T08:35:15;8.10;99.90
18888;DHT22;9576;47.792;9.628;2022-11-12T08:38:17;8.20;99.90
18888;DHT22;9576;47.792;9.628;2022-11-12T08:41:19;8.20;99.90
18888;DHT22;9576;47.792;9.628;2022-11-12T08:44:22;8.10;99.90
18888;DHT22;9576;47.792;9.628;2022-11-12T08:47:24;8.30;99.90
18888;DHT22;9576;47.792;9.628;2022-11-12T08:50:26;8.30;99.90
18888;DHT22;9576;47.792;9.628;2022-11-12T08:53:28;8.30;99.90
18888;DHT22;9576;47.792;9.628;2022-11-12T08:56:30;8.30;99.90
18888;DHT22;9576;47.792;9.628;2022-11-12T08:59:34;8.20;99.90
18888;DHT22;9576;47.792;9.628;2022-11-12T09:02:36;8.10;99.90
18888;DHT22;9576;47.792;9.628;2022-11-12T09:05:38;7.90;99.90
18888;DHT22;9576;47.792;9.628;2022-11-12T09:08:40;7.90;99.90
18888;DHT22;9576;47.792;9.628;2022-11-12T09:11:42;8.00;99.90
18888;DHT22;9576;47.792;9.628;2022-11-12T09:14:45;8.10;99.90
18888;DHT22;9576;47.792;9.628;2022-11-12T09:17:47;8.20;99.90
18888;DHT22;9576;47.792;9.628;2022-11-12T09:20:59;8.30;99.90
18888;DHT22;9576;47.792;9.628;2022-11-12T09:24:02;8.20;99.90
18888;DHT22;9576;47.792;9.628;2022-11-12T09:27:04;8.20;99.90
18888;DHT22;9576;47.792;9.628;2022-11-12T09:30:08;8.20;99.90
18888;DHT22;9576;47.792;9.628;2022-11-12T09:33:10;8.10;99.90
18888;DHT22;9576;47.792;9.628;2022-11-12T09:36:12;8.10;99.90
18888;DHT22;9576;47.792;9.628;2022-11-12T09:39:14;8.10;99.90
18888;DHT22;9576;47.792;9.628;2022-11-12T09:42:18;8.30;99.90
18888;DHT22;9576;47.792;9.628;2022-11-12T09:45:25;8.30;99.90
18888;DHT22;9576;47.792;9.628;2022-11-12T09:48:31;8.30;99.90
18888;DHT22;9576;47.792;9.628;2022-11-12T09:51:38;8.30;99.90
18888;DHT22;9576;47.792;9.628;2022-11-12T09:54:42;8.30;99.90
18888;DHT22;9576;47.792;9.628;2022-11-12T09:57:44;8.30;99.90
18888;DHT22;9576;47.792;9.628;2022-11-12T10:00:53;8.40;99.90
18888;DHT22;9576;47.792;9.628;2022-11-12T10:04:05;8.30;99.90
18888;DHT22;9576;47.792;9.628;2022-11-12T10:07:23;8.40;99.90
18888;DHT22;9576;47.792;9.628;2022-11-12T10:10:34;8.50;99.90
18888;DHT22;9576;47.792;9.628;2022-11-12T10:13:48;8.50;99.90
18888;DHT22;9576;47.792;9.628;2022-11-12T10:17:01;8.50;99.90
18888;DHT22;9576;47.792;9.628;2022-11-12T10:20:15;8.50;99.90
18888;DHT22;9576;47.792;9.628;2022-11-12T10:23:21;8.50;99.90
18888;DHT22;9576;47.792;9.628;2022-11-12T10:26:26;8.60;99.90
18888;DHT22;9576;47.792;9.628;2022-11-12T10:29:37;8.70;99.90
18888;DHT22;9576;47.792;9.628;2022-11-12T10:32:43;8.70;99.90
18888;DHT22;9576;47.792;9.628;2022-11-12T10:35:45;8.60;99.90
18888;DHT22;9576;47.792;9.628;2022-11-12T10:38:50;8.70;99.90
18888;DHT22;9576;47.792;9.628;2022-11-12T10:42:02;8.70;99.90
18888;DHT22;9576;47.792;9.628;2022-11-12T10:45:19;8.80;99.90
18888;DHT22;9576;47.792;9.628;2022-11-12T10:48:24;8.90;99.90
18888;DHT22;9576;47.792;9.628;2022-11-12T10:51:32;8.90;99.90
18888;DHT22;9576;47.792;9.628;2022-11-12T10:54:36;9.00;99.90
18888;DHT22;9576;47.792;9.628;2022-11-12T10:57:38;8.80;99.90
18888;DHT22;9576;47.792;9.628;2022-11-12T11:00:55;8.80;99.90
18888;DHT22;9576;47.792;9.628;2022-11-12T11:03:58;8.70;99.90
18888;DHT22;9576;47.792;9.628;2022-11-12T11:07:04;8.60;99.90
18888;DHT22;9576;47.792;9.628;2022-11-12T11:10:23;8.40;99.90
18888;DHT22;9576;47.792;9.628;2022-11-12T11:13:26;8.40;99.90
18888;DHT22;9576;47.792;9.628;2022-11-12T11:16:28;8.40;99.90
18888;DHT22;9576;47.792;9.628;2022-11-12T11:19:36;8.50;99.90
18888;DHT22;9576;47.792;9.628;2022-11-12T11:22:41;8.50;99.90
18888;DHT22;9576;47.792;9.628;2022-11-12T11:25:47;8.50;99.90
18888;DHT22;9576;47.792;9.628;2022-11-12T11:28:57;8.50;99.90
18888;DHT22;9576;47.792;9.628;2022-11-12T11:32:10;8.40;99.90
18888;DHT22;9576;47.792;9.628;2022-11-12T11:35:23;8.40;99.90
18888;DHT22;9576;47.792;9.628;2022-11-12T11:38:34;8.40;99.90
18888;DHT22;9576;47.792;9.628;2022-11-12T11:41:53;8.50;99.90
18888;DHT22;9576;47.792;9.628;2022-11-12T11:45:08;8.50;99.90
18888;DHT22;9576;47.792;9.628;2022-11-12T11:48:21;8.40;99.90
18888;DHT22;9576;47.792;9.628;2022-11-12T11:51:36;8.30;99.90
18888;DHT22;9576;47.792;9.628;2022-11-12T11:54:50;8.20;99.90
18888;DHT22;9576;47.792;9.628;2022-11-12T11:58:03;8.10;99.90
18888;DHT22;9576;47.792;9.628;2022-11-12T12:01:13;8.10;99.90
18888;DHT22;9576;47.792;9.628;2022-11-12T12:04:29;8.20;99.90
18888;DHT22;9576;47.792;9.628;2022-11-12T12:07:43;8.20;99.90
18888;DHT22;9576;47.792;9.628;2022-11-12T12:10:58;8.30;99.90
18888;DHT22;9576;47.792;9.628;2022-11-12T12:14:20;8.30;99.90
18888;DHT22;9576;47.792;9.628;2022-11-12T12:17:31;8.30;99.90
18888;DHT22;9576;47.792;9.628;2022-11-12T12:20:42;8.30;99.90
18888;DHT22;9576;47.792;9.628;2022-11-12T12:23:49;8.30;99.90
18888;DHT22;9576;47.792;9.628;2022-11-12T12:26:55;8.30;99.90
18888;DHT22;9576;47.792;9.628;2022-11-12T12:30:02;8.30;99.90
18888;DHT22;9576;47.792;9.628;2022-11-12T12:33:18;8.40;99.90
18888;DHT22;9576;47.792;9.628;2022-11-12T12:36:24;8.30;99.90
18888;DHT22;9576;47.792;9.628;2022-11-12T12:39:36;8.30;99.90
18888;DHT22;9576;47.792;9.628;2022-11-12T12:42:43;8.30;99.90
18888;DHT22;9576;47.792;9.628;2022-11-12T12:45:47;8.10;99.90
18888;DHT22;9576;47.792;9.628;2022-11-12T12:48:49;8.10;99.90
18888;DHT22;9576;47.792;9.628;2022-11-12T12:51:53;8.10;99.90
18888;DHT22;9576;47.792;9.628;2022-11-12T12:54:57;8.10;99.90
18888;DHT22;9576;47.792;9.628;2022-11-12T12:57:59;8.00;99.90
18888;DHT22;9576;47.792;9.628;2022-11-12T13:01:02;8.10;99.90
18888;DHT22;9576;47.792;9.628;2022-11-12T13:04:07;8.20;99.90
18888;DHT22;9576;47.792;9.628;2022-11-12T13:07:11;8.10;99.90
18888;DHT22;9576;47.792;9.628;2022-11-12T13:10:45;8.20;99.90
18888;DHT22;9576;47.792;9.628;2022-11-12T13:13:47;8.30;99.90
18888;DHT22;9576;47.792;9.628;2022-11-12T13:16:57;8.20;99.90
18888;DHT22;9576;47.792;9.628;2022-11-12T13:20:29;8.10;99.90
18888;DHT22;9576;47.792;9.628;2022-11-12T13:23:46;8.10;99.90
18888;DHT22;9576;47.792;9.628;2022-11-12T13:27:06;8.20;99.90
18888;DHT22;9576;47.792;9.628;2022-11-12T13:30:09;8.20;99.90
18888;DHT22;9576;47.792;9.628;2022-11-12T13:33:22;8.20;99.90
18888;DHT22;9576;47.792;9.628;2022-11-12T13:36:28;8.20;99.90
18888;DHT22;9576;47.792;9.628;2022-11-12T13:39:31;8.20;99.90
18888;DHT22;9576;47.792;9.628;2022-11-12T13:42:37;8.20;99.90
18888;DHT22;9576;47.792;9.628;2022-11-12T13:45:55;8.10;99.90
18888;DHT22;9576;47.792;9.628;2022-11-12T13:49:02;8.10;99.90
18888;DHT22;9576;47.792;9.628;2022-11-12T13:52:06;8.20;99.90
18888;DHT22;9576;47.792;9.628;2022-11-12T13:55:12;8.10;99.90
18888;DHT22;9576;47.792;9.628;2022-11-12T13:58:25;8.20;99.90
18888;DHT22;9576;47.792;9.628;2022-11-12T14:01:27;8.40;99.90
18888;DHT22;9576;47.792;9.628;2022-11-12T14:04:29;8.50;99.90
18888;DHT22;9576;47.792;9.628;2022-11-12T14:07:40;8.50;99.90
18888;DHT22;9576;47.792;9.628;2022-11-12T14:10:56;8.50;99.90
18888;DHT22;9576;47.792;9.628;2022-11-12T14:14:10;8.50;99.90
18888;DHT22;9576;47.792;9.628;2022-11-12T14:17:23;8.40;99.90
18888;DHT22;9576;47.792;9.628;2022-11-12T14:20:28;8.40;99.90
18888;DHT22;9576;47.792;9.628;2022-11-12T14:23:36;8.50;99.90
18888;DHT22;9576;47.792;9.628;2022-11-12T14:26:39;8.60;99.90
18888;DHT22;9576;47.792;9.628;2022-11-12T14:29:43;8.60;99.90
18888;DHT22;9576;47.792;9.628;2022-11-12T14:32:46;8.60;99.90
18888;DHT22;9576;47.792;9.628;2022-11-12T14:35:49;8.60;99.90
18888;DHT22;9576;47.792;9.628;2022-11-12T14:38:54;8.70;99.90
18888;DHT22;9576;47.792;9.628;2022-11-12T14:41:57;8.50;99.90
18888;DHT22;9576;47.792;9.628;2022-11-12T14:45:01;8.50;99.90
18888;DHT22;9576;47.792;9.628;2022-11-12T14:48:08;8.40;99.90
18888;DHT22;9576;47.792;9.628;2022-11-12T14:51:11;8.40;99.90
18888;DHT22;9576;47.792;9.628;2022-11-12T14:54:17;8.40;99.90
18888;DHT22;9576;47.792;9.628;2022-11-12T14:57:27;8.30;99.90
18888;DHT22;9576;47.792;9.628;2022-11-12T15:00:40;8.40;99.90
18888;DHT22;9576;47.792;9.628;2022-11-12T15:03:42;8.40;99.90
18888;DHT22;9576;47.792;9.628;2022-11-12T15:06:51;8.40;99.90
18888;DHT22;9576;47.792;9.628;2022-11-12T15:09:53;8.40;99.90
18888;DHT22;9576;47.792;9.628;2022-11-12T15:13:01;8.50;99.90
18888;DHT22;9576;47.792;9.628;2022-11-12T15:16:08;8.40;99.90
18888;DHT22;9576;47.792;9.628;2022-11-12T15:19:18;8.30;99.90
18888;DHT22;9576;47.792;9.628;2022-11-12T15:22:22;8.30;99.90
18888;DHT22;9576;47.792;9.628;2022-11-12T15:25:26;8.30;99.90
18888;DHT22;9576;47.792;9.628;2022-11-12T15:28:29;8.20;99.90
18888;DHT22;9576;47.792;9.628;2022-11-12T15:31:42;8.20;99.90
18888;DHT22;9576;47.792;9.628;2022-11-12T15:34:45;8.20;99.90
18888;DHT22;9576;47.792;9.628;2022-11-12T15:37:49;8.10;99.90
18888;DHT22;9576;47.792;9.628;2022-11-12T15:40:53;8.10;99.90
18888;DHT22;9576;47.792;9.628;2022-11-12T15:43:55;8.10;99.90
18888;DHT22;9576;47.792;9.628;2022-11-12T15:46:59;8.00;99.90
18888;DHT22;9576;47.792;9.628;2022-11-12T15:50:10;8.00;99.90
18888;DHT22;9576;47.792;9.628;2022-11-12T15:53:15;8.10;99.90
18888;DHT22;9576;47.792;9.628;2022-11-12T15:56:18;8.10;99.90
18888;DHT22;9576;47.792;9.628;2022-11-12T15:59:21;8.20;99.90
18888;DHT22;9576;47.792;9.628;2022-11-12T16:02:25;8.20;99.90
18888;DHT22;9576;47.792;9.628;2022-11-12T16:05:27;8.30;99.90
18888;DHT22;9576;47.792;9.628;2022-11-12T16:08:29;8.30;99.90
18888;DHT22;9576;47.792;9.628;2022-11-12T16:11:31;8.30;99.90
18888;DHT22;9576;47.792;9.628;2022-11-12T16:14:39;8.30;99.90
18888;DHT22;9576;47.792;9.628;2022-11-12T16:17:43;8.30;99.90
18888;DHT22;9576;47.792;9.628;2022-11-12T16:20:45;8.30;99.90
18888;DHT22;9576;47.792;9.628;2022-11-12T16:23:48;8.20;99.90
18888;DHT22;9576;47.792;9.628;2022-11-12T16:26:50;8.20;99.90
18888;DHT22;9576;47.792;9.628;2022-11-12T16:29:52;8.10;99.90
18888;DHT22;9576;47.792;9.628;2022-11-12T16:32:57;8.20;99.90
18888;DHT22;9576;47.792;9.628;2022-11-12T16:35:59;8.30;99.90
18888;DHT22;9576;47.792;9.628;2022-11-12T16:39:02;8.30;99.90
18888;DHT22;9576;47.792;9.628;2022-11-12T16:42:04;8.30;99.90
18888;DHT22;9576;47.792;9.628;2022-11-12T16:45:06;8.30;99.90
18888;DHT22;9576;47.792;9.628;2022-11-12T16:48:12;8.20;99.90
18888;DHT22;9576;47.792;9.628;2022-11-12T16:51:17;8.20;99.90
18888;DHT22;9576;47.792;9.628;2022-11-12T16:54:19;8.20;99.90
18888;DHT22;9576;47.792;9.628;2022-11-12T16:57:24;8.20;99.90
18888;DHT22;9576;47.792;9.628;2022-11-12T17:00:29;8.20;99.90
18888;DHT22;9576;47.792;9.628;2022-11-12T17:03:32;8.10;99.90
18888;DHT22;9576;47.792;9.628;2022-11-12T17:06:36;8.10;99.90
18888;DHT22;9576;47.792;9.628;2022-11-12T17:09:39;8.00;99.90
18888;DHT22;9576;47.792;9.628;2022-11-12T17:12:41;8.00;99.90
18888;DHT22;9576;47.792;9.628;2022-11-12T17:15:43;8.00;99.90
18888;DHT22;9576;47.792;9.628;2022-11-12T17:18:51;8.00;99.90
18888;DHT22;9576;47.792;9.628;2022-11-12T17:21:53;8.00;99.90
18888;DHT22;9576;47.792;9.628;2022-11-12T17:24:55;8.00;99.90
18888;DHT22;9576;47.792;9.628;2022-11-12T17:27:57;8.10;99.90
18888;DHT22;9576;47.792;9.628;2022-11-12T17:31:07;8.00;99.90
18888;DHT22;9576;47.792;9.628;2022-11-12T17:34:11;8.00;99.90
18888;DHT22;9576;47.792;9.628;2022-11-12T17:37:13;8.10;99.90
18888;DHT22;9576;47.792;9.628;2022-11-12T17:40:16;8.00;99.90
18888;DHT22;9576;47.792;9.628;2022-11-12T17:43:18;8.10;99.90
18888;DHT22;9576;47.792;9.628;2022-11-12T17:46:20;8.10;99.90
18888;DHT22;9576;47.792;9.628;2022-11-12T17:49:23;8.10;99.90
18888;DHT22;9576;47.792;9.628;2022-11-12T17:52:25;8.10;99.90
18888;DHT22;9576;47.792;9.628;2022-11-12T17:55:27;8.10;99.90
18888;DHT22;9576;47.792;9.628;2022-11-12T17:58:29;8.20;99.90
18888;DHT22;9576;47.792;9.628;2022-11-12T18:01:32;8.20;99.90
18888;DHT22;9576;47.792;9.628;2022-11-12T18:04:36;8.10;99.90
18888;DHT22;9576;47.792;9.628;2022-11-12T18:07:38;8.00;99.90
18888;DHT22;9576;47.792;9.628;2022-11-12T18:10:40;7.90;99.90
18888;DHT22;9576;47.792;9.628;2022-11-12T18:13:45;7.80;99.90
18888;DHT22;9576;47.792;9.628;2022-11-12T18:16:47;7.80;99.90
18888;DHT22;9576;47.792;9.628;2022-11-12T18:19:50;7.80;99.90
18888;DHT22;9576;47.792;9.628;2022-11-12T18:22:52;7.90;99.90
18888;DHT22;9576;47.792;9.628;2022-11-12T18:25:54;8.00;99.90
18888;DHT22;9576;47.792;9.628;2022-11-12T18:28:57;7.80;99.90
18888;DHT22;9576;47.792;9.628;2022-11-12T18:31:59;7.80;99.90
18888;DHT22;9576;47.792;9.628;2022-11-12T18:35:03;7.90;99.90
18888;DHT22;9576;47.792;9.628;2022-11-12T18:38:05;7.90;99.90
18888;DHT22;9576;47.792;9.628;2022-11-12T18:41:09;7.90;99.90
18888;DHT22;9576;47.792;9.628;2022-11-12T18:44:11;7.90;99.90
18888;DHT22;9576;47.792;9.628;2022-11-12T18:47:13;7.80;99.90
18888;DHT22;9576;47.792;9.628;2022-11-12T18:50:16;7.80;99.90
18888;DHT22;9576;47.792;9.628;2022-11-12T18:53:18;7.80;99.90
18888;DHT22;9576;47.792;9.628;2022-11-12T18:56:20;7.80;99.90
18888;DHT22;9576;47.792;9.628;2022-11-12T18:59:22;7.70;99.90
18888;DHT22;9576;47.792;9.628;2022-11-12T19:02:30;7.70;99.90
18888;DHT22;9576;47.792;9.628;2022-11-12T19:05:33;7.60;99.90
18888;DHT22;9576;47.792;9.628;2022-11-12T19:08:35;7.70;99.90
18888;DHT22;9576;47.792;9.628;2022-11-12T19:11:37;7.60;99.90
18888;DHT22;9576;47.792;9.628;2022-11-12T19:14:39;7.70;99.90
18888;DHT22;9576;47.792;9.628;2022-11-12T19:17:40;7.70;99.90
18888;DHT22;9576;47.792;9.628;2022-11-12T19:20:44;7.80;99.90
18888;DHT22;9576;47.792;9.628;2022-11-12T19:23:46;7.70;99.90
18888;DHT22;9576;47.792;9.628;2022-11-12T19:26:48;7.60;99.90
18888;DHT22;9576;47.792;9.628;2022-11-12T19:29:51;7.60;99.90
18888;DHT22;9576;47.792;9.628;2022-11-12T19:32:53;7.60;99.90
18888;DHT22;9576;47.792;9.628;2022-11-12T19:35:57;7.60;99.90
18888;DHT22;9576;47.792;9.628;2022-11-12T19:38:59;7.60;99.90
18888;DHT22;9576;47.792;9.628;2022-11-12T19:42:02;7.40;99.90
18888;DHT22;9576;47.792;9.628;2022-11-12T19:45:06;7.30;99.90
18888;DHT22;9576;47.792;9.628;2022-11-12T19:48:08;7.30;99.90
18888;DHT22;9576;47.792;9.628;2022-11-12T19:51:12;7.30;99.90
18888;DHT22;9576;47.792;9.628;2022-11-12T19:54:14;7.30;99.90
18888;DHT22;9576;47.792;9.628;2022-11-12T19:57:16;7.20;99.90
18888;DHT22;9576;47.792;9.628;2022-11-12T20:00:18;7.20;99.90
18888;DHT22;9576;47.792;9.628;2022-11-12T20:03:20;7.20;99.90
18888;DHT22;9576;47.792;9.628;2022-11-12T20:06:26;7.30;99.90